• Join FlightAware (Why Join?)
  • Login
  • US Flag 
05:01PM EST


 

Airport Tracker/Info


-or-


 

Live Flight TrackerFlight Track Log ✈ ACA7017 ✈ 10-Mar-2014 ✈ KDEN - CYWG

Flight Track Log - Related Links

Times and Time Zones

All times are in EDT time to prevent confusion due to time zone crossing. See the ACA7017 flight status page for this flight to view local times or setup timezone preferences in your user account.

Time Position Orientation Groundspeed Altitude Reporting Facility
EDT Latitude Longitude Course Direction KTS MPH feet Rate Location/Type
01:28AM 39.8833 -104.5833 105° East 187 215 6,900  Level Denver TRACON
01:29AM 39.8667 -104.5000 105° East 251 289 8,600 2,059 Climbing Denver TRACON
01:30AM 39.9092 -104.4597 36° Northeast 245 282 10,400 2,094 Climbing Denver Center
01:31AM 39.9906 -104.4319 15° North 306 352 12,300 2,750 Climbing Denver Center
01:32AM 40.0786 -104.4033 14° North 323 372 15,900 3,356 Climbing Denver Center
01:33AM 40.1736 -104.3719 14° North 353 406 18,900 2,430 Climbing Denver Center
01:34AM 40.2742 -104.3361 15° North 380 437 20,800 1,839 Climbing Denver Center
01:35AM 40.3769 -104.3056 13° North 389 448 22,700 1,983 Climbing Denver Center
01:36AM 40.4931 -104.2667 14° North 426 490 24,800 1,664 Climbing Denver Center
01:37AM 40.6106 -104.2206 17° North 437 503 26,000 1,426 Climbing Denver Center
01:38AM 40.7294 -104.1522 24° Northeast 465 535 27,700 1,500 Climbing Denver Center
01:39AM 40.8517 -104.0839 23° Northeast 474 545 29,000 1,900 Climbing Denver Center
01:40AM 40.9733 -104.0150 23° Northeast 479 551 31,500 1,967 Climbing Denver Center
01:41AM 41.0933 -103.9458 23° Northeast 464 534 33,000 1,537 Climbing Denver Center
01:42AM 41.2267 -103.8694 23° Northeast 465 535 34,600 984 Climbing Denver Center
01:43AM 41.3392 -103.8050 23° Northeast 464 534 35,000 195 Climbing Denver Center
01:44AM 41.4525 -103.7397 23° Northeast 464 534 35,000  Level Denver Center
01:45AM 41.5842 -103.6628 24° Northeast 465 535 35,000  Level Denver Center
01:46AM 41.6978 -103.5972 23° Northeast 464 534 35,000  Level Denver Center
01:47AM 41.8175 -103.5292 23° Northeast 482 555 35,000  Level Denver Center
01:48AM 41.9569 -103.4339 27° Northeast 501 577 35,000  Level Denver Center
01:49AM 42.0756 -103.3394 31° Northeast 516 594 35,000  Level Denver Center
01:50AM 42.1958 -103.2631 25° Northeast 506 582 35,000  Level Denver Center
01:51AM 42.3367 -103.1692 26° Northeast 505 581 35,000  Level Denver Center
01:52AM 42.4569 -103.0878 27° Northeast 505 581 35,000  Level Denver Center
01:53AM 42.5781 -103.0069 26° Northeast 506 582 35,000  Level Denver Center
01:54AM 42.7181 -102.9106 27° Northeast 506 582 35,000  Level Denver Center
01:55AM 42.8403 -102.8289 26° Northeast 511 588 35,000  Level Denver Center
01:56AM 42.9617 -102.7467 26° Northeast 509 586 35,000  Level Denver Center
01:57AM 43.0833 -102.6611 27° Northeast 512 589 35,000  Level Denver Center
01:58AM 43.2247 -102.5636 27° Northeast 512 589 35,000  Level Denver Center
01:59AM 43.3469 -102.4794 27° Northeast 512 589 35,000  Level Denver Center
02:00AM 43.4667 -102.3947 27° Northeast 508 585 35,000  Level Denver Center
02:01AM 43.6075 -102.2989 26° Northeast 508 585 35,000  Level Denver Center
02:02AM 43.7267 -102.2139 27° Northeast 505 581 35,000  Level Denver Center
02:03AM 43.8453 -102.1286 27° Northeast 504 580 35,000  Level Denver Center
02:04AM 43.9842 -102.0256 28° Northeast 503 579 35,000  Level Denver Center
02:05AM 44.1106 -101.9372 27° Northeast 503 579 35,000  Level Denver Center
02:06AM 44.2378 -101.8483 27° Northeast 505 581 35,000  Level Denver Center
02:07AM 44.3653 -101.7575 27° Northeast 511 588 35,000  Level Denver Center
02:08AM 44.4922 -101.6678 27° Northeast 511 588 35,000  Level Denver Center
02:09AM 44.5931 -101.5931 28° Northeast 511 588 35,000  Level Minneapolis Center
02:10AM 44.7197 -101.4989 28° Northeast 511 588 35,000  Level Minneapolis Center
02:11AM 44.8467 -101.4058 27° Northeast 512 589 35,000  Level Minneapolis Center
02:12AM 44.9731 -101.3122 28° Northeast 512 589 35,000  Level Minneapolis Center
02:13AM 45.0992 -101.2197 27° Northeast 512 589 35,000  Level Minneapolis Center
02:14AM 45.2253 -101.1256 28° Northeast 512 589 35,000  Level Minneapolis Center
02:15AM 45.3525 -101.0303 28° Northeast 512 589 35,000  Level Minneapolis Center
02:16AM 45.4800 -100.9342 28° Northeast 513 590 35,000  Level Minneapolis Center
02:17AM 45.6061 -100.8381 28° Northeast 513 590 35,000  Level Minneapolis Center
02:18AM 45.7317 -100.7419 28° Northeast 513 590 35,000  Level Minneapolis Center
02:19AM 45.8567 -100.6464 28° Northeast 512 589 35,000  Level Minneapolis Center
02:20AM 45.9814 -100.5500 28° Northeast 511 588 35,000  Level Minneapolis Center
02:21AM 46.1064 -100.4542 28° Northeast 511 588 35,000  Level Minneapolis Center
02:22AM 46.2303 -100.3561 29° Northeast 510 587 35,000  Level Minneapolis Center
02:23AM 46.3561 -100.2578 28° Northeast 510 587 35,000  Level Minneapolis Center
02:24AM 46.4808 -100.1600 28° Northeast 510 587 35,000  Level Minneapolis Center
02:25AM 46.6114 -100.0581 28° Northeast 510 587 35,000  Level Minneapolis Center
02:26AM 46.7347 -99.9581 29° Northeast 510 587 35,000 -50 Level Minneapolis Center
02:27AM 46.8558 -99.8608 29° Northeast 504 580 34,900 -50 Descending Minneapolis Center
02:28AM 46.9783 -99.7642 28° Northeast 503 579 34,900 50 Level Minneapolis Center
02:29AM 47.0997 -99.6658 29° Northeast 502 578 35,000  Climbing Minneapolis Center
02:30AM 47.2197 -99.5669 29° Northeast 499 574 34,900 -50 Descending Minneapolis Center
02:31AM 47.3403 -99.4689 29° Northeast 499 574 34,900 50 Level Minneapolis Center
02:32AM 47.4608 -99.3694 29° Northeast 498 573 35,000 50 Climbing Minneapolis Center
02:33AM 47.5800 -99.2700 29° Northeast 495 570 35,000 -50 Level Minneapolis Center
02:34AM 47.6992 -99.1722 29° Northeast 493 567 34,900 -50 Descending Minneapolis Center
02:35AM 47.8169 -99.0758 29° Northeast 487 560 34,900 50 Level Minneapolis Center
02:36AM 47.9333 -98.9778 29° Northeast 483 556 35,000  Climbing Minneapolis Center
02:37AM 48.0506 -98.8775 30° Northeast 483 556 34,900  Descending Minneapolis Center
02:38AM 48.1678 -98.7778 30° Northeast 483 556 35,000 -200 Climbing Minneapolis Center
02:39AM 48.2842 -98.6792 29° Northeast 483 556 34,500 -744 Descending Minneapolis Center
02:40AM 48.4031 -98.5806 29° Northeast 483 556 33,500 -1,190 Descending Minneapolis Center
02:41AM 48.5222 -98.4781 30° Northeast 485 558 32,100 -1,700 Descending Minneapolis Center
02:42AM 48.6397 -98.3767 30° Northeast 487 560 30,100 -2,430 Descending Minneapolis Center
02:43AM 48.7528 -98.2758 30° Northeast 483 556 27,200 -2,529 Descending Minneapolis Center
02:44AM 48.8608 -98.1717 32° Northeast 473 544 25,000 -2,650 Descending Minneapolis Center
02:45AM 48.9608 -98.0661 35° Northeast 457 526 21,900 -2,975 Descending Minneapolis Center
02:46AM 49.0539 -97.9769 32° Northeast 430 495 19,000 -2,826 Descending Minneapolis Center
02:47AM 49.1403 -97.8931 32° Northeast 401 461 16,200 -2,260 Descending Minneapolis Center
02:48AM 49.2333 -97.7667 42° Northeast 340 391 13,500 -1,932 Descending Winnipeg Center
02:49AM 49.3333 -97.6833 28° Northeast 320 368 11,500 -1,700 Descending Winnipeg Center
02:50AM 49.4000 -97.6333 26° Northeast 300 345 10,100 -1,400 Descending Winnipeg Center
02:51AM 49.4500 -97.5500 47° Northeast 280 322 8,700 -1,550 Descending Winnipeg Center
02:52AM 49.5167 -97.5000 26° Northeast 270 311 7,000 -1,650 Descending Winnipeg Center
02:53AM 49.5833 -97.4333 33° Northeast 260 299 5,400 -1,700 Descending Winnipeg Center
02:54AM 49.6333 -97.3833 33° Northeast 250 288 3,600 -1,000 Descending Winnipeg Center
02:55AM 49.7000 -97.3333 26° Northeast 220 253 3,400 -100 Descending Winnipeg Center
02:56AM 49.7333 -97.2833 44° Northeast 180 207 3,400 -250 Level Winnipeg Center
02:57AM 49.7833 -97.2500 23° Northeast 170 196 2,900 -650 Descending Winnipeg Center
02:58AM 49.8167 -97.2500 360° North 140 161 2,100 -750 Descending Winnipeg Center
02:59AM 49.8500 -97.2500 360° North 110 127 1,400 -650 Descending Winnipeg Center
03:00AM 49.8833 -97.2333 18° North 110 127 800 -600 Descending Winnipeg Center